Thursday, October 23, 2014
15:55 UTC
  |  Log In   |  Register Free
Airport Search:

Mount Sterling-Montgomery County Airport
(KIOB)

Mount Sterling-Montgomery County Airport Diagram
No Airport Diagram Available

FAA data valid effective September 18, 2014 - November 13, 2014 (unless otherwise noted).

 
 
 
 
 
 
 
 
 
 
 
 
 
 

Current Aviation Weather for Mount Sterling-Montgomery County Airport (KIOB)

The most recent METAR observation for KIOB was updated at: 1515
METAR Summary (Translated METAR)
KIOB
231455Z AUTO 10006KT 10SM SCT028 11/04 A3026 RMK AO2
KLEX
231454Z 09004KT 10SM FEW026 13/04 A3025 RMK AO2 SLP242 T01280044 53001
(29.6 nm SW from KIOB)
KFGX
231455Z AUTO 09005KT 10SM SCT019 11/05 A3026 RMK AO2 T01050054
(31.1 nm NE from KIOB)
TAF Summary (Translated TAF)
KLEX
(29.6 nm SW from KIOB)
231120Z 2312/2412 04005KT P6SM BKN025 FM231300 06004KT P6SM SCT250
  Airport Weather Conditions for KIOB

 Current Weather at IOB
50° F
Partly Cloudy
East winds at 3.5 mph
IOB NOAA Radar

Pressure: 30.26 in
Humidity: 62%
Wind: East at 3.5 MPH (3 KT)
Dew Point: 37.4°F
Visibility: 10.00 mi


Airport Weather Forecast for KIOB

Translated METAR and TAF for KIOB
Translated METAR for KIOB (1550 UTC 23 October 2014)
found at http://aviationweather.gov/adds/metars/
 
METAR text: KIOB 231535Z AUTO 06004KT 10SM SCT028 11/04 A3026 RMK AO2
Conditions at: KIOB (MOUNT STERLING , KY, US) observed 1535 UTC 23 October 2014
Temperature: 11.0°C (52°F)
Dewpoint: 4.0°C (39°F) [RH = 62%]
Pressure (altimeter): 30.26 inches Hg (1024.8 mb)
Winds: from the ENE (60 degrees) at 5 MPH (4 knots; 2.1 m/s)
Visibility: 10 or more miles (16+ km)
Ceiling: at least 12,000 feet AGL
Clouds: scattered clouds at 2800 feet AGL
Weather: automated observation with no human augmentation;
there may or may not be significant weather present at this time
Translated TAF for KIOB

There is no translated TAF available for this airport

Find All Airport Services Find A Hotel Find A Rental Car Find A Golf Course Find A Restaurant $100 Hamburger



FBO's on the Field
FBO Company Facility Photos Services Transportation Aviation Fuel Prices: Prices include tax
Catering Weather Repair Courtesy Rental Type 100LL JetA JetA+ MOGAS 8087
 
Kentucky Airmotive Inc

This FBO has not yet been rated
FS:Shell
Last Updated: Sep-23
Login to update fuel prices
SS:
Contact Kentucky Airmotive IncMore FBO Information
 
Add another FBO Facility Photos Catering Weather Repair Courtesy Rental Type 100LL JetA JetA+ MOGAS 8087
Services Transportation Aviation Fuel Prices: Prices include tax


model-print
model-print
model-print
model-print